Time;durP1;ratioP1;P1;durP2;ratioP2;P2;SDS_P1;SDS_P2;PMS_P1;PMS_P2;Temp;Humidity;BMP_temperature;BMP_pressure;BME280_temperature;BME280_humidity;BME280_pressure;Samples;Min_cycle;Max_cycle;Signal;HPM_P1;HPM_P2
2024/03/02 00:00:28;;;;;;;49.60;36.90;;;;;;;8.74;82.91;100915.05;104831;1258;138524;-64
2024/03/02 00:03:15;;;;;;;49.00;37.20;;;;;;;8.75;82.93;100918.79;109011;1254;75273;-64
2024/03/02 00:05:42;;;;;;;54.20;37.90;;;;;;;8.75;82.87;100916.85;108900;1256;67346;-65
2024/03/02 00:08:08;;;;;;;54.80;38.50;;;;;;;8.76;82.86;100916.17;108996;1254;137868;-65
2024/03/02 00:10:42;;;;;;;49.40;35.50;;;;;;;8.75;82.74;100912.65;108877;1257;59811;-64
2024/03/02 00:13:09;;;;;;;48.80;37.00;;;;;;;8.75;82.68;100910.37;108899;1257;139041;-65
2024/03/02 00:15:47;;;;;;;48.50;35.30;;;;;;;8.74;82.64;100908.41;108957;1260;74479;-64
2024/03/02 00:18:27;;;;;;;50.20;36.00;;;;;;;8.73;82.54;100911.02;108850;1256;138902;-64
2024/03/02 00:20:55;;;;;;;50.10;35.90;;;;;;;8.74;82.65;100910.16;109082;1259;72794;-66
2024/03/02 00:23:22;;;;;;;48.60;36.40;;;;;;;8.75;82.60;100915.98;109083;1256;59590;-64
2024/03/02 00:25:53;;;;;;;48.70;35.60;;;;;;;8.76;82.56;100912.50;108952;1259;138703;-64
2024/03/02 00:28:24;;;;;;;50.70;35.40;;;;;;;8.75;82.57;100913.52;108729;1256;72635;-64
2024/03/02 00:31:11;;;;;;;50.40;36.40;;;;;;;8.75;82.51;100916.31;104788;1254;138469;-64
2024/03/02 00:33:43;;;;;;;49.30;33.90;;;;;;;8.73;82.49;100915.89;108963;1256;72667;-65
2024/03/02 00:36:11;;;;;;;48.80;35.20;;;;;;;8.72;82.45;100910.27;108964;1258;138562;-67
2024/03/02 00:38:52;;;;;;;45.50;34.20;;;;;;;8.72;82.54;100907.46;109039;1255;58676;-66
2024/03/02 00:41:40;;;;;;;49.80;34.40;;;;;;;8.72;82.50;100900.64;109084;1256;74373;-66
2024/03/02 00:44:07;;;;;;;49.70;33.60;;;;;;;8.74;82.62;100894.61;108951;1258;138954;-66
2024/03/02 00:46:37;;;;;;;45.80;33.10;;;;;;;8.76;82.46;100891.49;108845;1255;71481;-66
2024/03/02 00:49:05;;;;;;;49.30;35.40;;;;;;;8.77;82.51;100896.98;108917;1258;138386;-66
2024/03/02 00:51:33;;;;;;;46.80;33.90;;;;;;;8.78;82.51;100893.48;108955;1256;59616;-66
2024/03/02 00:54:03;;;;;;;49.60;35.30;;;;;;;8.77;82.45;100888.39;108901;1256;139187;-66
2024/03/02 00:56:30;;;;;;;46.40;34.00;;;;;;;8.79;82.45;100889.15;108985;1255;66436;-65
2024/03/02 00:58:57;;;;;;;49.40;34.60;;;;;;;8.79;82.42;100885.85;109035;1256;72074;-65
2024/03/02 01:01:24;;;;;;;46.10;33.80;;;;;;;8.81;82.48;100891.13;109011;1254;138338;-64
2024/03/02 01:03:51;;;;;;;49.70;35.40;;;;;;;8.80;82.30;100890.95;108844;1257;60555;-65
2024/03/02 01:06:18;;;;;;;46.70;34.60;;;;;;;8.80;82.49;100886.05;108988;1254;138553;-67
2024/03/02 01:08:47;;;;;;;51.50;35.10;;;;;;;8.81;82.39;100881.71;108916;1256;64781;-67
2024/03/02 01:11:13;;;;;;;47.00;34.70;;;;;;;8.81;82.34;100881.19;109063;1256;71957;-67
2024/03/02 01:13:40;;;;;;;44.50;34.50;;;;;;;8.80;82.28;100886.77;108968;1257;137553;-68
2024/03/02 01:16:07;;;;;;;52.40;35.90;;;;;;;8.79;82.29;100890.22;109049;1256;58519;-66
2024/03/02 01:18:33;;;;;;;47.30;35.20;;;;;;;8.79;82.29;100891.77;109049;1254;137680;-67
2024/03/02 01:21:01;;;;;;;48.70;35.50;;;;;;;8.78;82.33;100889.11;108947;1260;66461;-65
2024/03/02 01:23:27;;;;;;;53.70;36.80;;;;;;;8.77;82.25;100884.71;109057;1256;73955;-65
2024/03/02 01:25:55;;;;;;;53.00;36.00;;;;;;;8.76;82.23;100883.27;108873;1254;138713;-65
2024/03/02 01:28:21;;;;;;;48.00;36.10;;;;;;;8.73;82.15;100884.41;107307;1257;60319;-66
2024/03/02 01:30:49;;;;;;;44.50;34.00;;;;;;;8.71;82.25;100877.36;104615;1259;138601;-65
2024/03/02 01:33:17;;;;;;;49.80;36.90;;;;;;;8.72;82.25;100877.73;104671;1261;66975;-63
2024/03/02 01:35:44;;;;;;;53.50;35.60;;;;;;;8.72;82.28;100875.98;108990;1255;73085;-63
2024/03/02 01:38:11;;;;;;;49.30;34.20;;;;;;;8.72;82.38;100875.64;108936;1257;138133;-63
2024/03/02 01:40:38;;;;;;;49.20;35.20;;;;;;;8.73;82.25;100873.04;109044;1256;60325;-63
2024/03/02 01:43:05;;;;;;;48.00;35.60;;;;;;;8.72;82.25;100878.25;108868;1256;138657;-63
2024/03/02 01:45:32;;;;;;;52.30;34.50;;;;;;;8.73;82.26;100877.77;109038;1259;65057;-62
2024/03/02 01:47:59;;;;;;;48.80;33.50;;;;;;;8.74;82.21;100873.25;108904;1255;139030;-62
2024/03/02 01:50:27;;;;;;;50.00;33.10;;;;;;;8.77;82.27;100871.42;109058;1255;60171;-63
2024/03/02 01:52:54;;;;;;;46.30;33.30;;;;;;;8.77;82.16;100872.13;108964;1258;58765;-63
2024/03/02 01:55:21;;;;;;;45.80;33.00;;;;;;;8.76;82.09;100874.72;108944;1258;138370;-63
2024/03/02 01:57:50;;;;;;;46.60;33.40;;;;;;;8.74;82.06;100880.27;109021;1254;66096;-63
2024/03/02 02:00:17;;;;;;;50.30;32.70;;;;;;;8.72;82.14;100881.60;108767;1256;138674;-62
2024/03/02 02:02:44;;;;;;;47.10;33.40;;;;;;;8.73;82.11;100873.91;109023;1256;58240;-62
2024/03/02 02:05:11;;;;;;;50.90;34.90;;;;;;;8.74;82.12;100872.55;109034;1256;58747;-62
2024/03/02 02:07:38;;;;;;;51.60;35.00;;;;;;;8.72;82.05;100870.40;109022;1254;139769;-63
2024/03/02 02:10:05;;;;;;;45.60;33.60;;;;;;;8.70;82.05;100865.05;109065;1257;64866;-63
2024/03/02 02:12:32;;;;;;;46.80;34.30;;;;;;;8.68;82.19;100865.34;106796;1260;139074;-62
2024/03/02 02:14:58;;;;;;;52.10;35.60;;;;;;;8.67;82.08;100869.86;104898;1260;60867;-62
2024/03/02 02:17:25;;;;;;;48.10;35.50;;;;;;;8.65;82.12;100870.12;105154;1260;60601;-62
2024/03/02 02:19:52;;;;;;;54.00;36.00;;;;;;;8.62;82.14;100865.30;104744;1260;138433;-63
2024/03/02 02:22:19;;;;;;;48.10;34.80;;;;;;;8.60;82.28;100868.57;104847;1262;67224;-63
2024/03/02 02:24:45;;;;;;;44.40;32.80;;;;;;;8.58;82.21;100873.21;104842;1256;139190;-63
2024/03/02 02:27:15;;;;;;;49.30;35.70;;;;;;;8.56;82.33;100876.66;105041;1258;60470;-66
2024/03/02 02:29:42;;;;;;;50.90;33.70;;;;;;;8.54;82.23;100875.02;109058;1254;59620;-66
2024/03/02 02:32:09;;;;;;;49.50;34.00;;;;;;;8.54;82.37;100872.73;108922;1256;138322;-66
2024/03/02 02:34:35;;;;;;;49.20;33.70;;;;;;;8.55;82.45;100868.23;108993;1257;66595;-67
2024/03/02 02:37:02;;;;;;;46.20;33.30;;;;;;;8.57;82.46;100865.14;108906;1260;144956;-66
2024/03/02 02:39:29;;;;;;;48.90;33.60;;;;;;;8.57;82.33;100862.33;108966;1256;59758;-66
2024/03/02 02:41:55;;;;;;;45.00;31.80;;;;;;;8.57;82.36;100863.91;108908;1255;139284;-66
2024/03/02 02:44:22;;;;;;;47.90;33.80;;;;;;;8.56;82.32;100861.45;109032;1254;74187;-66
2024/03/02 02:46:49;;;;;;;47.90;33.20;;;;;;;8.56;82.30;100855.16;109007;1254;64693;-65
2024/03/02 02:49:17;;;;;;;47.50;32.60;;;;;;;8.56;82.26;100852.16;108913;1257;139036;-63
2024/03/02 02:51:43;;;;;;;47.00;33.50;;;;;;;8.55;82.28;100853.17;109052;1260;60477;-63
2024/03/02 02:54:10;;;;;;;44.80;32.30;;;;;;;8.53;82.26;100851.54;108800;1258;138595;-63
2024/03/02 02:56:37;;;;;;;48.30;35.00;;;;;;;8.54;82.34;100851.05;109008;1255;72907;-64
2024/03/02 02:59:03;;;;;;;45.90;32.50;;;;;;;8.55;82.35;100848.65;109112;1254;66296;-64
2024/03/02 03:01:30;;;;;;;49.80;32.40;;;;;;;8.56;82.39;100850.95;108780;1257;138648;-63
2024/03/02 03:03:56;;;;;;;47.80;32.60;;;;;;;8.56;82.43;100849.02;109010;1257;59392;-63
2024/03/02 03:06:23;;;;;;;45.60;32.00;;;;;;;8.58;82.37;100849.41;108924;1256;138426;-63
2024/03/02 03:08:50;;;;;;;46.10;33.00;;;;;;;8.58;82.39;100850.45;109067;1255;72690;-63
2024/03/02 03:11:17;;;;;;;48.30;33.40;;;;;;;8.58;82.35;100851.19;109096;1260;65835;-63
2024/03/02 03:13:43;;;;;;;45.50;32.70;;;;;;;8.58;82.38;100849.09;108895;1257;139073;-63
2024/03/02 03:16:10;;;;;;;47.80;35.40;;;;;;;8.58;82.30;100845.74;109095;1257;64066;-63
2024/03/02 03:18:38;;;;;;;47.30;33.60;;;;;;;8.58;82.34;100844.18;108919;1257;137576;-63
2024/03/02 03:21:05;;;;;;;46.90;33.80;;;;;;;8.56;82.37;100841.14;109180;1254;75033;-63
2024/03/02 03:23:31;;;;;;;47.20;34.60;;;;;;;8.55;82.40;100841.46;109028;1256;64621;-63
2024/03/02 03:25:58;;;;;;;52.80;35.80;;;;;;;8.53;82.35;100840.02;108756;1256;138051;-63
2024/03/02 03:28:25;;;;;;;52.30;33.60;;;;;;;8.52;82.33;100838.92;109047;1260;58398;-64
2024/03/02 03:30:51;;;;;;;47.60;34.30;;;;;;;8.52;82.37;100832.42;108855;1257;138461;-63
2024/03/02 03:33:18;;;;;;;45.00;33.10;;;;;;;8.52;82.34;100828.04;109068;1257;72271;-63
2024/03/02 03:35:45;;;;;;;49.40;34.10;;;;;;;8.51;82.34;100828.36;109034;1257;66818;-63
2024/03/02 03:38:11;;;;;;;45.30;33.50;;;;;;;8.50;82.47;100825.74;108897;1255;138266;-65
2024/03/02 03:40:38;;;;;;;47.70;33.50;;;;;;;8.49;82.29;100827.44;107895;1259;58973;-65
2024/03/02 03:43:05;;;;;;;46.40;33.50;;;;;;;8.47;82.40;100827.71;104793;1259;138627;-64
2024/03/02 03:45:32;;;;;;;47.40;35.80;;;;;;;8.47;82.41;100828.93;104908;1265;74758;-65
2024/03/02 03:47:58;;;;;;;47.80;35.40;;;;;;;8.47;82.46;100822.27;104889;1264;139203;-65
2024/03/02 03:50:25;;;;;;;52.60;35.10;;;;;;;8.46;82.48;100826.63;105051;1259;73369;-65
2024/03/02 03:52:52;;;;;;;48.90;34.90;;;;;;;8.45;82.49;100830.09;104926;1260;60438;-65
2024/03/02 03:55:19;;;;;;;50.60;36.10;;;;;;;8.41;82.40;100830.45;104723;1259;138754;-64
2024/03/02 03:57:45;;;;;;;50.90;36.10;;;;;;;8.37;82.49;100842.73;109009;1255;73242;-65
2024/03/02 04:00:13;;;;;;;54.40;35.70;;;;;;;8.36;82.54;100849.85;108960;1254;138700;-65
2024/03/02 04:02:39;;;;;;;53.30;36.20;;;;;;;8.35;82.52;100857.34;109078;1256;73204;-64
2024/03/02 04:05:10;;;;;;;47.50;34.20;;;;;;;8.34;82.51;100866.41;109038;1256;59609;-64
2024/03/02 04:07:40;;;;;;;49.80;34.70;;;;;;;8.32;82.52;100861.61;108835;1258;139376;-64
2024/03/02 04:10:08;;;;;;;49.80;35.10;;;;;;;8.31;82.57;100865.05;109074;1257;73187;-64
2024/03/02 04:12:36;;;;;;;50.40;35.70;;;;;;;8.31;82.52;100864.17;108884;1256;138694;-64
2024/03/02 04:15:05;;;;;;;47.60;33.60;;;;;;;8.32;82.62;100865.44;109058;1255;72401;-64
2024/03/02 04:17:33;;;;;;;47.70;34.30;;;;;;;8.33;82.61;100865.85;109097;1254;59681;-64
2024/03/02 04:20:00;;;;;;;49.30;35.60;;;;;;;8.34;82.65;100866.58;109012;1254;138636;-65
2024/03/02 04:22:27;;;;;;;50.20;35.40;;;;;;;8.35;82.60;100863.80;108978;1256;71739;-65
2024/03/02 04:24:54;;;;;;;48.80;36.10;;;;;;;8.35;82.56;100860.30;108777;1254;138505;-64
2024/03/02 04:27:24;;;;;;;49.20;36.20;;;;;;;8.34;82.63;100862.91;104905;1260;73421;-64
2024/03/02 04:29:51;;;;;;;53.10;37.70;;;;;;;8.34;82.50;100863.45;105003;1260;140033;-64
2024/03/02 04:32:19;;;;;;;50.20;35.60;;;;;;;8.34;82.56;100864.31;105044;1260;60436;-64
2024/03/02 04:34:46;;;;;;;49.50;35.10;;;;;;;8.31;82.55;100865.42;104842;1258;73766;-63
2024/03/02 04:37:14;;;;;;;50.90;37.50;;;;;;;8.30;82.65;100866.77;104808;1259;147423;-65
2024/03/02 04:39:41;;;;;;;53.40;36.10;;;;;;;8.28;82.66;100866.70;104843;1260;73864;-64
2024/03/02 04:42:07;;;;;;;50.40;34.80;;;;;;;8.28;82.70;100863.39;104743;1257;138286;-65
2024/03/02 04:44:34;;;;;;;50.30;35.10;;;;;;;8.26;82.72;100865.05;104842;1257;60555;-63
2024/03/02 04:47:01;;;;;;;51.80;37.00;;;;;;;8.23;82.86;100863.54;104924;1260;71993;-63
2024/03/02 04:49:27;;;;;;;53.60;37.20;;;;;;;8.21;82.77;100862.44;104731;1260;138333;-64
2024/03/02 04:51:54;;;;;;;50.40;36.60;;;;;;;8.21;82.85;100859.09;104910;1261;71703;-64
2024/03/02 04:54:21;;;;;;;50.50;34.50;;;;;;;8.20;82.91;100861.16;104809;1259;138505;-63
2024/03/02 04:56:50;;;;;;;53.50;36.00;;;;;;;8.19;82.85;100858.52;105093;1259;59970;-62
2024/03/02 04:59:17;;;;;;;50.70;36.10;;;;;;;8.18;82.92;100857.77;104817;1260;74529;-63
2024/03/02 05:01:44;;;;;;;44.80;34.30;;;;;;;8.18;83.01;100856.20;104871;1258;138542;-64
2024/03/02 05:04:11;;;;;;;52.80;36.20;;;;;;;8.15;82.78;100853.14;109042;1254;73505;-64
2024/03/02 05:06:42;;;;;;;50.10;36.50;;;;;;;8.12;82.82;100847.23;108885;1257;138250;-64
2024/03/02 05:09:09;;;;;;;50.90;36.00;;;;;;;8.08;82.73;100849.02;108903;1254;61054;-63
2024/03/02 05:14:05;;;;;;;47.30;34.00;;;;;;;7.92;82.49;100850.54;108914;1257;139130;-63
2024/03/02 05:16:33;;;;;;;55.40;35.60;;;;;;;7.84;82.48;100849.53;109152;1254;72545;-64
2024/03/02 05:19:00;;;;;;;48.80;35.30;;;;;;;7.76;82.48;100857.27;109033;1254;138666;-63
2024/03/02 05:21:27;;;;;;;52.50;36.50;;;;;;;7.68;82.59;100859.24;109091;1254;60794;-63
2024/03/02 05:23:53;;;;;;;53.60;36.50;;;;;;;7.64;82.74;100856.63;108979;1257;139121;-63
2024/03/02 05:26:20;;;;;;;52.60;37.20;;;;;;;7.60;82.83;100859.30;106167;1256;66398;-63
2024/03/02 05:28:47;;;;;;;51.50;35.50;;;;;;;7.58;83.02;100863.25;104924;1260;72842;-63
2024/03/02 05:31:17;;;;;;;54.80;37.50;;;;;;;7.59;83.20;100862.73;104781;1261;139078;-63
2024/03/02 05:33:43;;;;;;;51.40;36.90;;;;;;;7.60;83.38;100868.71;104846;1258;60783;-63
2024/03/02 05:36:10;;;;;;;52.60;36.00;;;;;;;7.62;83.38;100873.15;104753;1256;138596;-64
2024/03/02 05:38:37;;;;;;;58.70;39.20;;;;;;;7.62;83.41;100876.48;105058;1260;67488;-64
2024/03/02 05:41:04;;;;;;;53.60;37.70;;;;;;;7.63;83.51;100875.83;104875;1261;73375;-63
2024/03/02 05:43:31;;;;;;;54.30;38.50;;;;;;;7.64;83.49;100879.66;104717;1261;138407;-63
2024/03/02 05:45:58;;;;;;;50.10;37.00;;;;;;;7.62;83.44;100882.40;104788;1262;60423;-63
2024/03/02 05:48:25;;;;;;;54.10;37.50;;;;;;;7.59;83.58;100885.62;104765;1257;138619;-63
2024/03/02 05:50:51;;;;;;;56.40;37.40;;;;;;;7.59;83.55;100893.48;105039;1260;65408;-63
2024/03/02 05:53:18;;;;;;;56.40;37.90;;;;;;;7.60;83.67;100897.36;104819;1260;73850;-63
2024/03/02 05:55:45;;;;;;;53.00;37.50;;;;;;;7.62;83.72;100900.22;104870;1260;138651;-63
2024/03/02 06:00:38;;;;;;;56.60;39.50;;;;;;;7.66;83.83;100903.19;108890;1256;138401;-64
2024/03/02 06:03:06;;;;;;;56.80;38.20;;;;;;;7.70;83.75;100904.54;106961;1256;66269;-65
2024/03/02 06:05:32;;;;;;;56.10;38.90;;;;;;;7.71;83.69;100906.15;109077;1254;72994;-64
2024/03/02 06:07:59;;;;;;;56.80;37.20;;;;;;;7.74;83.79;100911.88;108924;1254;138552;-64
2024/03/02 06:10:26;;;;;;;54.90;36.70;;;;;;;7.78;83.72;100911.86;106198;1254;60898;-64
2024/03/02 06:12:53;;;;;;;50.80;36.20;;;;;;;7.82;83.81;100912.70;104760;1261;138719;-64
2024/03/02 06:15:20;;;;;;;50.00;37.00;;;;;;;7.88;83.72;100910.99;104965;1256;64513;-64
2024/03/02 06:17:46;;;;;;;49.70;36.20;;;;;;;7.91;83.70;100913.05;104938;1257;72134;-64
2024/03/02 06:20:13;;;;;;;54.10;37.30;;;;;;;7.93;83.70;100916.98;105049;1254;60538;-64
2024/03/02 06:22:40;;;;;;;54.90;37.40;;;;;;;7.97;83.79;100919.94;104960;1256;60374;-63
2024/03/02 06:25:07;;;;;;;51.90;37.40;;;;;;;8.02;83.73;100912.41;104811;1258;138398;-63
2024/03/02 06:27:34;;;;;;;53.30;36.50;;;;;;;8.08;83.71;100912.80;109004;1256;66090;-64
2024/03/02 06:30:01;;;;;;;53.80;37.70;;;;;;;8.12;83.66;100912.44;109000;1254;138691;-63
2024/03/02 06:32:27;;;;;;;54.70;36.80;;;;;;;8.19;83.66;100913.21;109055;1256;58158;-64
2024/03/02 06:34:54;;;;;;;59.60;38.10;;;;;;;8.26;83.61;100906.11;109095;1255;58139;-63
2024/03/02 06:37:21;;;;;;;56.20;38.80;;;;;;;8.32;83.46;100906.02;108912;1256;138979;-63
2024/03/02 06:39:47;;;;;;;56.90;38.30;;;;;;;8.42;83.49;100903.06;108952;1255;64656;-63
2024/03/02 06:42:14;;;;;;;55.30;39.20;;;;;;;8.49;83.33;100905.27;104756;1260;139076;-63
2024/03/02 06:44:41;;;;;;;55.20;37.90;;;;;;;8.57;83.30;100907.46;104938;1260;60475;-63
2024/03/02 06:47:08;;;;;;;54.90;39.80;;;;;;;8.64;83.11;100912.59;105032;1261;60766;-63
2024/03/02 06:49:35;;;;;;;56.90;40.20;;;;;;;8.70;83.05;100906.69;104887;1261;137746;-63
2024/03/02 06:52:02;;;;;;;55.20;40.60;;;;;;;8.74;83.05;100897.38;105027;1256;64285;-63
2024/03/02 06:54:29;;;;;;;53.10;38.90;;;;;;;8.88;82.91;100906.96;106205;1260;137960;-63
2024/03/02 06:56:55;;;;;;;56.20;40.70;;;;;;;8.94;82.78;100903.66;104943;1256;60560;-63
2024/03/02 06:59:22;;;;;;;57.50;38.90;;;;;;;9.02;82.64;100904.83;105017;1260;60405;-63
2024/03/02 07:01:49;;;;;;;57.00;39.60;;;;;;;9.13;82.60;100904.11;104747;1257;138426;-64
2024/03/02 07:04:15;;;;;;;53.80;38.00;;;;;;;9.25;82.65;100903.84;104824;1260;66632;-63
2024/03/02 07:06:42;;;;;;;54.80;39.20;;;;;;;9.39;82.48;100908.33;104720;1260;138629;-65
2024/03/02 07:09:10;;;;;;;51.20;37.90;;;;;;;9.50;82.35;100908.67;104634;1259;60461;-63
2024/03/02 07:11:38;;;;;;;57.00;39.80;;;;;;;9.67;82.38;100908.14;108732;1254;60896;-63
2024/03/02 07:14:04;;;;;;;57.10;41.00;;;;;;;9.82;82.09;100909.84;108722;1254;138354;-64
2024/03/02 07:16:33;;;;;;;60.30;42.10;;;;;;;9.93;81.71;100905.44;108864;1254;66473;-64
2024/03/02 07:19:01;;;;;;;56.40;41.80;;;;;;;9.98;81.33;100905.05;108765;1254;138045;-64
2024/03/02 07:21:27;;;;;;;58.90;42.30;;;;;;;9.99;81.05;100907.19;108828;1254;59257;-64
2024/03/02 07:23:55;;;;;;;61.60;44.20;;;;;;;9.97;80.80;100913.61;107452;1257;137869;-65
2024/03/02 07:26:22;;;;;;;59.70;43.50;;;;;;;9.94;80.59;100918.60;107971;1254;73814;-65
2024/03/02 07:28:49;;;;;;;57.30;43.20;;;;;;;9.89;80.48;100920.57;104740;1254;67166;-63
2024/03/02 07:31:17;;;;;;;60.20;40.10;;;;;;;9.84;80.22;100925.16;108381;1256;139396;-65
2024/03/02 07:33:46;;;;;;;56.40;41.70;;;;;;;9.78;80.28;100921.61;108404;1255;58624;-63
2024/03/02 07:36:12;;;;;;;59.50;41.50;;;;;;;9.75;80.27;100918.04;108332;1254;139192;-63
2024/03/02 07:38:40;;;;;;;56.50;40.50;;;;;;;9.69;80.18;100930.64;108327;1254;75450;-63
2024/03/02 07:41:08;;;;;;;54.90;39.40;;;;;;;9.58;79.96;100934.85;108726;1254;64212;-63
2024/03/02 07:43:34;;;;;;;60.30;41.90;;;;;;;9.47;79.94;100939.05;108940;1254;138888;-62
2024/03/02 07:46:02;;;;;;;60.10;41.20;;;;;;;9.39;79.93;100945.95;108791;1254;59613;-63
2024/03/02 07:48:30;;;;;;;55.40;39.80;;;;;;;9.31;80.07;100945.38;108763;1254;137859;-63
2024/03/02 07:50:57;;;;;;;56.70;41.60;;;;;;;9.27;80.16;100938.05;108896;1254;71302;-66
2024/03/02 07:53:24;;;;;;;59.60;41.20;;;;;;;9.24;80.26;100942.52;108768;1254;67131;-67
2024/03/02 07:55:51;;;;;;;56.40;40.10;;;;;;;9.21;80.11;100944.50;108468;1254;138680;-67
2024/03/02 07:58:19;;;;;;;54.80;39.50;;;;;;;9.20;80.28;100943.77;108733;1254;58988;-67
2024/03/02 08:00:46;;;;;;;57.00;40.50;;;;;;;9.20;80.25;100948.15;108563;1254;139134;-67
2024/03/02 08:03:13;;;;;;;54.80;38.60;;;;;;;9.20;80.20;100951.29;108769;1254;72558;-66
2024/03/02 08:05:40;;;;;;;50.90;37.50;;;;;;;9.20;80.20;100948.31;108832;1254;66098;-67
2024/03/02 08:08:07;;;;;;;53.50;39.00;;;;;;;9.24;80.29;100950.89;108760;1254;138171;-67
2024/03/02 08:10:33;;;;;;;52.50;38.40;;;;;;;9.29;80.30;100958.79;106304;1257;60401;-63
2024/03/02 08:13:00;;;;;;;56.10;39.40;;;;;;;9.33;80.18;100947.16;104805;1254;139055;-63
2024/03/02 08:15:27;;;;;;;56.50;40.30;;;;;;;9.39;80.13;100941.95;104550;1255;326955;-67
2024/03/02 08:17:54;;;;;;;56.30;39.60;;;;;;;9.45;80.21;100945.48;104678;1259;138092;-67
2024/03/02 08:20:20;;;;;;;58.30;41.00;;;;;;;9.52;80.05;100942.71;104822;1254;71802;-66
2024/03/02 08:22:47;;;;;;;57.60;38.90;;;;;;;9.57;80.08;100936.91;104764;1254;60474;-64
2024/03/02 08:25:15;;;;;;;58.70;40.80;;;;;;;9.63;79.89;100944.45;104528;1260;138018;-66
2024/03/02 08:27:42;;;;;;;54.70;39.20;;;;;;;9.71;80.10;100947.36;104602;1260;76123;-67
2024/03/02 08:30:10;;;;;;;57.20;40.70;;;;;;;9.83;80.11;100936.50;108805;1256;139114;-66
2024/03/02 08:32:37;;;;;;;54.90;41.30;;;;;;;9.96;79.96;100945.30;108845;1254;72786;-70
2024/03/02 08:35:05;;;;;;;57.90;40.10;;;;;;;10.04;79.79;100953.80;108723;1254;62254;-64
2024/03/02 08:37:31;;;;;;;54.40;39.00;;;;;;;10.09;79.52;100952.04;108773;1257;138879;-68
2024/03/02 08:39:58;;;;;;;56.30;39.80;;;;;;;10.17;79.45;100948.05;108897;1254;74960;-66
2024/03/02 08:42:25;;;;;;;49.30;37.90;;;;;;;10.22;79.37;100940.48;108581;1254;138991;-65
2024/03/02 08:44:52;;;;;;;52.70;39.50;;;;;;;10.31;79.39;100950.75;108895;1258;72674;-64
2024/03/02 08:47:18;;;;;;;52.00;38.50;;;;;;;10.38;79.28;100955.20;108752;1254;58242;-64
2024/03/02 08:49:45;;;;;;;53.50;39.70;;;;;;;10.42;79.00;100953.90;108418;1254;138070;-66
2024/03/02 08:52:12;;;;;;;52.60;39.20;;;;;;;10.36;78.62;100945.84;108873;1254;73289;-65
2024/03/02 08:54:39;;;;;;;51.70;38.60;;;;;;;10.31;78.57;100944.09;108723;1254;138395;-66
2024/03/02 08:57:07;;;;;;;59.50;40.40;;;;;;;10.24;78.41;100938.45;108458;1254;72527;-65
2024/03/02 08:59:33;;;;;;;50.70;38.40;;;;;;;10.25;78.68;100938.29;107984;1254;60479;-64
2024/03/02 09:02:00;;;;;;;51.10;37.50;;;;;;;10.30;78.66;100948.08;104730;1254;138975;-64
2024/03/02 09:04:28;;;;;;;49.10;36.60;;;;;;;10.28;78.47;100951.04;104728;1254;75980;-65
2024/03/02 09:06:55;;;;;;;53.00;38.40;;;;;;;10.24;78.34;100951.59;108646;1256;138676;-65
2024/03/02 09:09:21;;;;;;;54.40;38.30;;;;;;;10.23;78.37;100960.33;108842;1254;72651;-65
2024/03/02 09:11:48;;;;;;;51.70;38.20;;;;;;;10.24;78.43;100957.20;108779;1254;138437;-65
2024/03/02 09:14:15;;;;;;;52.30;37.80;;;;;;;10.26;78.35;100951.13;108737;1254;60319;-65
2024/03/02 09:16:42;;;;;;;52.30;36.80;;;;;;;10.28;78.33;100951.20;108197;1254;73618;-64
2024/03/02 09:19:10;;;;;;;52.90;40.00;;;;;;;10.35;78.42;100950.17;108727;1254;138183;-64
2024/03/02 09:21:37;;;;;;;54.80;39.10;;;;;;;10.42;78.34;100956.70;108843;1258;72660;-65
2024/03/02 09:24:04;;;;;;;51.60;38.40;;;;;;;10.44;78.21;100949.58;108782;1254;139337;-65
2024/03/02 09:26:30;;;;;;;51.30;38.10;;;;;;;10.43;78.02;100954.64;108803;1254;60087;-64
2024/03/02 09:28:57;;;;;;;49.20;36.90;;;;;;;10.42;78.09;100962.70;108860;1254;73747;-64
2024/03/02 09:31:24;;;;;;;53.80;37.50;;;;;;;10.47;78.19;100964.39;106048;1259;138596;-63
2024/03/02 09:33:51;;;;;;;47.90;35.50;;;;;;;10.51;78.05;100966.63;104792;1256;72008;-63
2024/03/02 09:36:22;;;;;;;50.10;36.20;;;;;;;10.55;77.96;100970.77;104679;1257;138952;-65
2024/03/02 09:38:49;;;;;;;53.00;38.50;;;;;;;10.60;77.91;100974.42;109032;1256;59262;-64
2024/03/02 09:41:15;;;;;;;48.80;37.00;;;;;;;10.70;78.05;100978.38;105362;1255;73116;-63
2024/03/02 09:43:43;;;;;;;48.90;37.90;;;;;;;10.83;78.01;100977.68;104713;1258;138070;-63
2024/03/02 09:46:10;;;;;;;52.40;35.60;;;;;;;10.90;77.77;100980.35;104575;1258;70750;-63
2024/03/02 09:48:37;;;;;;;54.80;38.70;;;;;;;11.00;77.70;100983.58;108990;1254;138174;-63
2024/03/02 09:51:04;;;;;;;49.30;37.60;;;;;;;11.10;77.74;100982.28;109086;1256;58770;-63
2024/03/02 09:53:33;;;;;;;46.10;36.00;;;;;;;11.19;77.51;100982.86;109110;1255;73976;-63
2024/03/02 09:56:00;;;;;;;50.90;37.00;;;;;;;11.22;77.19;100979.80;108073;1254;137840;-64
2024/03/02 09:58:27;;;;;;;47.20;36.20;;;;;;;11.25;77.00;100981.60;109121;1254;72155;-65
2024/03/02 10:00:54;;;;;;;49.60;36.60;;;;;;;11.23;76.78;100982.80;109019;1254;138578;-64
2024/03/02 10:03:21;;;;;;;46.50;36.80;;;;;;;11.24;76.78;100982.13;107252;1256;60419;-64
2024/03/02 10:05:48;;;;;;;47.80;37.10;;;;;;;11.30;76.84;100976.83;108167;1254;138934;-65
2024/03/02 10:08:15;;;;;;;50.90;36.40;;;;;;;11.43;76.96;100975.23;104895;1254;65613;-64
2024/03/02 10:10:44;;;;;;;50.20;37.20;;;;;;;11.61;76.94;100975.48;104807;1258;73848;-63
2024/03/02 10:13:11;;;;;;;42.00;33.80;;;;;;;11.77;76.73;100973.39;104826;1259;137904;-63
2024/03/02 10:15:40;;;;;;;50.00;35.70;;;;;;;11.89;76.62;100972.64;109064;1254;60210;-64
2024/03/02 10:18:11;;;;;;;46.90;34.50;;;;;;;12.08;76.82;100976.45;108886;1254;138304;-64
2024/03/02 10:20:38;;;;;;;43.20;34.30;;;;;;;12.22;76.39;100974.46;108941;1254;66329;-60
2024/03/02 10:23:16;;;;;;;46.30;35.10;;;;;;;12.32;76.03;100974.14;108423;1254;72876;-60
2024/03/02 10:25:43;;;;;;;41.20;31.20;;;;;;;12.42;75.82;100973.48;108321;1255;139778;-61
2024/03/02 10:28:10;;;;;;;43.80;34.50;;;;;;;12.59;76.03;100976.13;108498;1254;59400;-61
2024/03/02 10:30:36;;;;;;;46.00;36.20;;;;;;;12.79;75.74;100978.29;108596;1254;139904;-61
2024/03/02 10:33:03;;;;;;;47.30;35.30;;;;;;;12.92;75.45;100977.63;108884;1254;67527;-61
2024/03/02 10:35:32;;;;;;;40.10;32.20;;;;;;;13.02;74.97;100975.55;108638;1254;71383;-65
2024/03/02 10:37:59;;;;;;;39.50;32.80;;;;;;;13.02;74.56;100976.77;108583;1254;137883;-65
2024/03/02 10:40:26;;;;;;;49.40;36.80;;;;;;;13.02;74.43;100979.60;108757;1254;60310;-65
2024/03/02 10:42:53;;;;;;;44.60;34.70;;;;;;;13.03;74.21;100977.67;108496;1256;138405;-65
2024/03/02 10:45:22;;;;;;;40.70;33.10;;;;;;;13.08;74.19;100973.34;108864;1254;66074;-65
2024/03/02 10:47:49;;;;;;;39.20;32.10;;;;;;;13.12;74.06;100972.70;108555;1254;139434;-64
2024/03/02 10:50:16;;;;;;;39.60;32.60;;;;;;;13.12;73.83;100970.11;108822;1254;58463;-65
2024/03/02 10:52:43;;;;;;;40.90;32.40;;;;;;;13.18;73.87;100971.08;108831;1254;59443;-65
2024/03/02 10:55:10;;;;;;;40.50;33.30;;;;;;;13.24;73.60;100969.25;108698;1254;139891;-65
2024/03/02 10:57:50;;;;;;;41.20;32.60;;;;;;;13.27;73.51;100972.28;108316;1259;65505;-65
2024/03/02 11:00:19;;;;;;;39.90;31.60;;;;;;;13.31;73.40;100965.70;108630;1254;139823;-65
2024/03/02 11:02:51;;;;;;;39.10;31.90;;;;;;;13.28;73.06;100962.44;108602;1254;59134;-65
2024/03/02 11:05:27;;;;;;;41.10;32.50;;;;;;;13.20;72.90;100956.30;108835;1256;59281;-65
2024/03/02 11:08:02;;;;;;;39.30;33.20;;;;;;;13.18;72.90;100956.97;108587;1255;138107;-65
2024/03/02 11:10:36;;;;;;;39.60;31.50;;;;;;;13.19;72.90;100952.77;109090;1256;65544;-64